Lakeview, Illinois
Current Conditions -  °F | °C
As of 7:51 AM on Monday 26 Jan 2015 (Local Time) from KORD Reporting Station
Broken Clouds Broken Clouds  
Wind Chill: 17°   Ceiling: 25000
Heat Index: 17°   Visibility: 10mi
Dew Point: 14°   Wind: 3mph
Humidity: 88%   Direction: 280°W
Pressure: 29.96"   Gusts: NA
Location:  41.9541°N, 87.6605°W
Report Text: KORD 261351Z 28003KT 10SM SCT130 BKN250 M08/M10 A2996 RMK AO2 SLP156 T10831100
Loading
Personal Weather Stations






























Interactive Weather Map New forecast layout! Learn more

10-Day Weather Forecast

Advertisements
Track Severe Weather on mobile